createdAt,value
2022-09-12T00:01:50.374Z,101345.09
2022-09-12T00:04:16.004Z,101345.91
2022-09-12T00:06:41.543Z,101348.69
2022-09-12T00:09:08.013Z,101349.53
2022-09-12T00:11:35.950Z,101347.56
2022-09-12T00:14:01.683Z,101344.78
2022-09-12T00:16:27.778Z,101332.03
2022-09-12T00:18:53.355Z,101333.16
2022-09-12T00:21:18.939Z,101324.84
2022-09-12T00:23:44.487Z,101330.38
2022-09-12T00:26:10.375Z,101329.25
2022-09-12T00:28:36.397Z,101330.38
2022-09-12T00:31:04.052Z,101329.56
2022-09-12T00:33:30.188Z,101325.66
2022-09-12T00:35:55.729Z,101328.44
2022-09-12T00:38:21.272Z,101332.34
2022-09-12T00:40:46.923Z,101331.22
2022-09-12T00:43:14.440Z,101328.75
2022-09-12T00:45:41.719Z,101324.00
2022-09-12T00:48:08.059Z,101319.28
2022-09-12T00:50:33.596Z,101322.06
2022-09-12T00:53:01.496Z,101310.13
2022-09-12T00:55:28.020Z,101307.34
2022-09-12T00:57:55.829Z,101310.94
2022-09-12T01:00:22.139Z,101299.84
2022-09-12T01:02:49.885Z,101307.34
2022-09-12T01:05:15.489Z,101303.75
2022-09-12T01:07:41.027Z,101304.56
2022-09-12T01:10:07.225Z,101303.75
2022-09-12T01:12:33.540Z,101302.94
2022-09-12T01:14:59.141Z,101304.56
2022-09-12T01:17:27.168Z,101307.63
2022-09-12T01:19:59.388Z,101310.94
2022-09-12T01:22:31.218Z,101306.53
2022-09-12T01:25:07.680Z,101304.56
2022-09-12T01:27:39.654Z,101303.75
2022-09-12T01:30:16.445Z,101289.31
2022-09-12T01:32:47.477Z,101298.19
2022-09-12T01:35:31.368Z,101293.47
2022-09-12T01:38:01.881Z,101295.69
2022-09-12T01:40:30.870Z,101291.81
2022-09-12T01:43:02.420Z,101278.22
2022-09-12T01:45:29.597Z,101284.31
2022-09-12T01:47:58.372Z,101281.81
2022-09-12T01:50:24.581Z,101281.53
2022-09-12T01:55:27.797Z,101276.25
2022-09-12T01:57:54.324Z,101283.47
2022-09-12T02:00:19.882Z,101281.81
2022-09-12T02:02:48.262Z,101278.75
2022-09-12T02:05:18.736Z,101272.66
2022-09-12T02:07:44.851Z,101274.59
2022-09-12T02:10:12.794Z,101267.09
2022-09-12T02:12:41.467Z,101265.16
2022-09-12T02:15:07.594Z,101268.75
2022-09-12T02:17:34.653Z,101267.66
2022-09-12T02:20:06.524Z,101263.50
2022-09-12T02:22:32.148Z,101263.19
2022-09-12T02:24:58.911Z,101264.31
2022-09-12T02:27:27.408Z,101265.16
2022-09-12T02:29:52.957Z,101264.88
2022-09-12T02:32:24.444Z,101263.50
2022-09-12T02:34:51.616Z,101264.31
2022-09-12T02:37:22.776Z,101262.69
2022-09-12T02:39:48.395Z,101249.63
2022-09-12T02:42:13.969Z,101252.41
2022-09-12T02:44:39.551Z,101258.78
2022-09-12T02:47:09.285Z,101251.56
2022-09-12T02:49:34.871Z,101247.97
2022-09-12T02:52:00.416Z,101256.00
2022-09-12T02:54:25.956Z,101248.47
2022-09-12T02:56:51.492Z,101242.09
2022-09-12T02:59:18.138Z,101231.31
2022-09-12T03:02:03.628Z,101246.00
2022-09-12T03:07:34.213Z,101246.84
2022-09-12T03:10:02.842Z,101234.91
2022-09-12T03:12:34.413Z,101235.72
2022-09-12T03:15:07.033Z,101235.72
2022-09-12T03:17:52.460Z,101234.59
2022-09-12T03:23:02.601Z,101234.09
2022-09-12T03:25:30.097Z,101235.72
2022-09-12T03:27:58.056Z,101234.91
2022-09-12T03:30:23.844Z,101244.88
2022-09-12T03:32:50.374Z,101242.41
2022-09-12T03:35:20.898Z,101244.06
2022-09-12T03:37:48.873Z,101239.34
2022-09-12T03:40:14.777Z,101236.88
2022-09-12T03:42:40.530Z,101243.56
2022-09-12T03:45:06.533Z,101236.88
2022-09-12T03:47:32.081Z,101234.09
2022-09-12T03:49:57.626Z,101230.50
2022-09-12T03:52:23.195Z,101236.88
2022-09-12T03:54:48.962Z,101234.91
2022-09-12T03:57:14.503Z,101231.31
2022-09-12T03:59:40.045Z,101232.13
2022-09-12T04:02:05.603Z,101232.13
2022-09-12T04:04:31.193Z,101238.00
2022-09-12T04:06:56.731Z,101229.66
2022-09-12T04:09:22.276Z,101222.16
2022-09-12T04:11:47.825Z,101229.34
2022-09-12T04:14:13.362Z,101227.72
2022-09-12T04:16:38.937Z,101224.13
2022-09-12T04:19:04.498Z,101219.66
2022-09-12T04:21:30.193Z,101224.94
2022-09-12T04:23:55.733Z,101219.38
2022-09-12T04:26:21.608Z,101223.81
2022-09-12T04:28:47.387Z,101225.75
2022-09-12T04:31:14.875Z,101223.81
2022-09-12T04:33:40.478Z,101220.19
2022-09-12T04:36:06.811Z,101210.50
2022-09-12T04:38:32.790Z,101220.47
2022-09-12T04:40:58.337Z,101214.09
2022-09-12T04:43:23.871Z,101214.09
2022-09-12T04:45:49.456Z,101216.59
2022-09-12T04:48:15.112Z,101216.88
2022-09-12T04:50:40.660Z,101207.72
2022-09-12T04:53:06.364Z,101215.78
2022-09-12T04:55:33.132Z,101203.81
2022-09-12T04:57:58.681Z,101211.34
2022-09-12T05:00:24.215Z,101208.56
2022-09-12T05:02:49.762Z,101206.59
2022-09-12T05:05:16.659Z,101203.00
2022-09-12T05:07:42.204Z,101204.13
2022-09-12T05:10:08.201Z,101194.97
2022-09-12T05:12:33.748Z,101201.34
2022-09-12T05:14:59.292Z,101194.66
2022-09-12T05:17:24.843Z,101196.63
2022-09-12T05:19:50.380Z,101195.81
2022-09-12T05:22:15.930Z,101201.34
2022-09-12T05:24:45.204Z,101197.25
2022-09-12T05:27:12.897Z,101197.53
2022-09-12T05:29:38.443Z,101203.06
2022-09-12T05:32:03.984Z,101198.34
2022-09-12T05:34:29.533Z,101204.72
2022-09-12T05:36:55.080Z,101200.03
2022-09-12T05:39:20.608Z,101198.06
2022-09-12T05:41:46.511Z,101194.16
2022-09-12T05:44:13.261Z,101196.94
2022-09-12T05:46:40.499Z,101192.50
2022-09-12T05:49:08.044Z,101191.06
2022-09-12T05:51:34.541Z,101196.84
2022-09-12T05:54:00.444Z,101195.72
2022-09-12T05:56:27.744Z,101203.53
2022-09-12T05:58:55.193Z,101208.28
2022-09-12T06:01:20.760Z,101210.22
2022-09-12T06:03:47.546Z,101216.88
2022-09-12T06:06:13.758Z,101221.63
2022-09-12T06:08:40.332Z,101215.25
2022-09-12T06:11:06.180Z,101223.06
2022-09-12T06:13:32.684Z,101219.47
2022-09-12T06:16:02.156Z,101225.84
2022-09-12T06:18:27.700Z,101225.00
2022-09-12T06:20:53.242Z,101227.78
2022-09-12T06:23:18.787Z,101229.44
2022-09-12T06:25:46.386Z,101227.78
2022-09-12T06:28:11.931Z,101223.06
2022-09-12T06:30:37.482Z,101226.66
2022-09-12T06:33:03.043Z,101221.09
2022-09-12T06:35:28.582Z,101226.09
2022-09-12T06:37:54.567Z,101223.53
2022-09-12T06:40:20.157Z,101211.31
2022-09-12T06:42:45.722Z,101218.69
2022-09-12T06:45:11.280Z,101216.97
2022-09-12T06:47:36.841Z,101219.16
2022-09-12T06:50:02.378Z,101219.16
2022-09-12T06:52:28.407Z,101221.63
2022-09-12T06:54:53.947Z,101216.88
2022-09-12T06:57:19.501Z,101219.66
2022-09-12T06:59:45.043Z,101221.19
2022-09-12T07:02:11.609Z,101224.31
2022-09-12T07:04:37.176Z,101214.19
2022-09-12T07:07:02.711Z,101227.47
2022-09-12T07:09:29.959Z,101216.69
2022-09-12T07:11:55.622Z,101225.34
2022-09-12T07:14:21.157Z,101223.13
2022-09-12T07:16:46.733Z,101226.91
2022-09-12T07:19:12.313Z,101225.34
2022-09-12T07:21:38.915Z,101226.09
2022-09-12T07:24:04.877Z,101228.59
2022-09-12T07:26:30.446Z,101231.06
2022-09-12T07:29:12.799Z,101230.50
2022-09-12T07:31:42.019Z,101224.13
2022-09-12T07:34:07.592Z,101222.66
2022-09-12T07:36:33.482Z,101219.38
2022-09-12T07:38:59.022Z,101220.47
2022-09-12T07:41:25.686Z,101219.38
2022-09-12T07:43:52.388Z,101213.00
2022-09-12T07:46:17.960Z,101208.50
2022-09-12T07:48:44.668Z,101203.22
2022-09-12T07:51:10.414Z,101205.19
2022-09-12T07:53:36.731Z,101210.75
2022-09-12T07:56:02.734Z,101216.53
2022-09-12T07:58:29.485Z,101223.22
2022-09-12T08:01:00.798Z,101222.09
2022-09-12T08:03:26.383Z,101213.44
2022-09-12T08:05:51.923Z,101211.50
2022-09-12T08:08:17.735Z,101208.97
2022-09-12T08:10:43.281Z,101206.19
2022-09-12T08:13:10.788Z,101214.53
2022-09-12T08:15:36.532Z,101216.19
2022-09-12T08:18:02.123Z,101233.97
2022-09-12T08:20:28.470Z,101236.75
2022-09-12T08:22:54.158Z,101225.63
2022-09-12T08:25:19.700Z,101222.03
2022-09-12T08:27:46.315Z,101229.78
2022-09-12T08:30:12.236Z,101225.34
2022-09-12T08:32:37.787Z,101230.91
2022-09-12T08:35:03.432Z,101228.97
2022-09-12T08:37:29.655Z,101230.59
2022-09-12T08:39:55.814Z,101225.34
2022-09-12T08:42:33.001Z,101218.66
2022-09-12T08:45:01.919Z,101217.63
2022-09-12T08:47:31.784Z,101216.47
2022-09-12T08:50:17.272Z,101219.25
2022-09-12T08:52:47.174Z,101218.13
2022-09-12T08:55:21.315Z,101213.41
2022-09-12T08:57:46.922Z,101210.94
2022-09-12T09:00:13.004Z,101211.47
2022-09-12T09:02:45.037Z,101213.94
2022-09-12T09:05:13.543Z,101212.28
2022-09-12T09:07:59.510Z,101213.13
2022-09-12T09:10:30.931Z,101202.00
2022-09-12T09:13:07.362Z,101209.53
2022-09-12T09:15:35.586Z,101211.47
2022-09-12T09:18:03.380Z,101207.03
2022-09-12T09:20:32.507Z,101211.97
2022-09-12T09:23:01.526Z,101213.63
2022-09-12T09:25:43.804Z,101213.63
2022-09-12T09:28:18.729Z,101205.28
2022-09-12T09:30:44.367Z,101203.34
2022-09-12T09:33:14.979Z,101196.97
2022-09-12T09:35:44.335Z,101193.38
2022-09-12T09:38:17.247Z,101194.19
2022-09-12T09:41:00.735Z,101190.28
2022-09-12T09:43:28.200Z,101188.34
2022-09-12T09:45:54.151Z,101188.34
2022-09-12T09:48:22.633Z,101184.72
2022-09-12T09:50:48.583Z,101181.94
2022-09-12T09:53:21.119Z,101182.47
2022-09-12T09:55:46.663Z,101171.56
2022-09-12T09:58:26.730Z,101178.16
2022-09-12T10:00:56.590Z,101179.47
2022-09-12T10:03:27.966Z,101164.69
2022-09-12T10:05:54.219Z,101165.00
2022-09-12T10:08:20.527Z,101159.44
2022-09-12T10:13:40.711Z,101165.00
2022-09-12T10:16:16.027Z,101157.81
2022-09-12T10:18:41.959Z,101156.94
2022-09-12T10:21:15.275Z,101156.94
2022-09-12T10:23:40.814Z,101144.72
2022-09-12T10:26:10.382Z,101151.94
2022-09-12T10:28:36.946Z,101147.19
2022-09-12T10:31:02.543Z,101140.81
2022-09-12T10:33:28.132Z,101144.72
2022-09-12T10:35:54.293Z,101135.28
2022-09-12T10:38:23.845Z,101131.34
2022-09-12T10:40:58.932Z,101130.22
2022-09-12T10:43:27.195Z,101125.81
2022-09-12T10:45:56.202Z,101108.00
2022-09-12T10:48:30.798Z,101114.09
2022-09-12T10:50:56.858Z,101113.28
2022-09-12T10:53:23.275Z,101116.88
2022-09-12T10:55:54.786Z,101118.50
2022-09-12T10:58:28.310Z,101112.13
2022-09-12T11:00:56.627Z,101107.19
2022-09-12T11:03:24.014Z,101105.00
2022-09-12T11:06:04.551Z,101101.63
2022-09-12T11:08:49.971Z,101094.56
2022-09-12T11:11:36.354Z,101098.03
2022-09-12T11:14:08.451Z,101094.84
2022-09-12T11:16:38.837Z,101095.56
2022-09-12T11:19:18.355Z,101090.75
2022-09-12T11:24:40.047Z,101084.03
2022-09-12T11:27:12.182Z,101071.84
2022-09-12T11:29:57.616Z,101074.63
2022-09-12T11:32:41.721Z,101071.28
2022-09-12T11:35:17.454Z,101079.03
2022-09-12T11:37:47.406Z,101068.19
2022-09-12T11:40:19.956Z,101070.97
2022-09-12T11:42:45.544Z,101064.59
2022-09-12T11:45:13.127Z,101069.88
2022-09-12T11:47:38.672Z,101063.50
2022-09-12T11:50:05.159Z,101064.31
2022-09-12T11:52:33.216Z,101068.75
2022-09-12T11:55:03.090Z,101057.63
2022-09-12T12:00:26.948Z,101056.50
2022-09-12T12:03:12.807Z,101067.31
2022-09-12T12:05:54.977Z,101053.72
2022-09-12T12:08:22.376Z,101047.88
2022-09-12T12:10:51.316Z,101045.09
2022-09-12T12:13:38.313Z,101040.03
2022-09-12T12:16:06.210Z,101039.72
2022-09-12T12:18:32.298Z,101042.81
2022-09-12T12:21:15.399Z,101031.22
2022-09-12T12:23:40.940Z,101028.13
2022-09-12T12:26:08.370Z,101035.63
2022-09-12T12:31:17.365Z,101031.41
2022-09-12T12:36:33.132Z,101023.59
2022-09-12T12:38:59.178Z,101015.25
2022-09-12T12:41:28.011Z,101008.06
2022-09-12T12:43:55.444Z,101003.34
2022-09-12T12:46:21.939Z,101011.34
2022-09-12T12:49:07.435Z,100997.78
2022-09-12T12:51:35.246Z,100987.78
2022-09-12T12:54:01.624Z,100994.47
2022-09-12T12:56:28.378Z,100990.53
2022-09-12T12:58:57.654Z,100988.41
2022-09-12T13:01:23.269Z,100989.53
2022-09-12T13:03:58.304Z,100989.22
2022-09-12T13:06:33.582Z,100994.78
2022-09-12T13:09:00.149Z,100989.72
2022-09-12T13:11:40.550Z,100985.31
2022-09-12T13:14:08.672Z,100988.41
2022-09-12T13:16:35.628Z,100983.34
2022-09-12T13:19:05.202Z,100990.88
2022-09-12T13:21:30.749Z,100984.81
2022-09-12T13:24:01.703Z,100977.28
2022-09-12T13:26:27.419Z,100971.53
2022-09-12T13:29:12.894Z,100975.66
2022-09-12T13:31:38.477Z,100967.00
2022-09-12T13:34:04.534Z,100968.13
2022-09-12T13:36:50.008Z,100963.09
2022-09-12T13:39:35.434Z,100957.53
2022-09-12T13:42:20.947Z,100966.69
2022-09-12T13:44:48.398Z,100963.09
2022-09-12T13:47:15.130Z,100968.63
2022-09-12T13:49:40.666Z,100959.47
2022-09-12T13:52:07.651Z,100957.84
2022-09-12T13:54:37.034Z,100950.94
2022-09-12T13:57:03.235Z,100947.88
2022-09-12T13:59:36.686Z,100945.38
2022-09-12T14:02:02.249Z,100939.00
2022-09-12T14:04:48.467Z,100930.66
2022-09-12T14:07:14.739Z,100935.09
2022-09-12T14:09:41.532Z,100919.25
2022-09-12T14:12:19.791Z,100922.03
2022-09-12T14:14:46.187Z,100924.78
2022-09-12T14:17:16.237Z,100922.03
2022-09-12T14:19:42.599Z,100927.56
2022-09-12T14:22:09.064Z,100915.66
2022-09-12T14:24:34.599Z,100917.31
2022-09-12T14:27:00.334Z,100904.53
2022-09-12T14:29:26.197Z,100900.94
2022-09-12T14:31:59.708Z,100890.66
2022-09-12T14:34:25.522Z,100898.16
2022-09-12T14:36:51.480Z,100894.56
2022-09-12T14:39:18.802Z,100893.75
2022-09-12T14:41:45.382Z,100885.09
2022-09-12T14:44:25.906Z,100886.22
2022-09-12T14:46:51.574Z,100896.19
2022-09-12T14:49:35.414Z,100890.66
2022-09-12T14:52:01.678Z,100887.03
2022-09-12T14:57:05.030Z,100881.50
2022-09-12T15:02:21.160Z,100870.38
2022-09-12T15:04:54.754Z,100876.75
2022-09-12T15:07:36.146Z,100872.34
2022-09-12T15:10:09.330Z,100868.44
2022-09-12T15:12:34.877Z,100869.56
2022-09-12T15:15:04.008Z,100870.69
2022-09-12T15:17:29.550Z,100869.88
2022-09-12T15:19:55.089Z,100858.44
2022-09-12T15:22:20.864Z,100856.50
2022-09-12T15:24:46.403Z,100856.22
2022-09-12T15:27:11.941Z,100857.31
2022-09-12T15:29:37.846Z,100862.88
2022-09-12T15:32:03.671Z,100859.28
2022-09-12T15:34:29.212Z,100854.84
2022-09-12T15:36:54.763Z,100857.63
2022-09-12T15:39:20.312Z,100854.84
2022-09-12T15:41:46.555Z,100850.13
2022-09-12T15:44:12.356Z,100840.97
2022-09-12T15:46:37.967Z,100842.09
2022-09-12T15:49:03.551Z,100840.97
2022-09-12T15:51:29.103Z,100841.78
2022-09-12T15:53:54.650Z,100847.03
2022-09-12T15:56:20.451Z,100838.69
2022-09-12T15:58:58.152Z,100836.75
2022-09-12T16:01:24.278Z,100833.13
2022-09-12T16:03:49.856Z,100818.44
2022-09-12T16:06:15.396Z,100833.13
2022-09-12T16:08:40.952Z,100825.94
2022-09-12T16:11:07.657Z,100822.34
2022-09-12T16:13:33.208Z,100816.78
2022-09-12T16:16:00.214Z,100800.13
2022-09-12T16:18:26.147Z,100800.94
2022-09-12T16:20:52.346Z,100801.25
2022-09-12T16:23:17.893Z,100804.84
2022-09-12T16:25:43.477Z,100798.47
2022-09-12T16:28:09.142Z,100796.84
2022-09-12T16:30:34.863Z,100801.25
2022-09-12T16:33:00.426Z,100800.44
2022-09-12T16:35:26.190Z,100796.84
2022-09-12T16:37:51.930Z,100788.50
2022-09-12T16:40:18.572Z,100789.63
2022-09-12T16:42:44.503Z,100791.28
2022-09-12T16:45:10.174Z,100796.00
2022-09-12T16:47:35.715Z,100789.34
2022-09-12T16:50:01.249Z,100780.19
2022-09-12T16:52:27.428Z,100784.88
2022-09-12T16:54:52.963Z,100783.78
2022-09-12T16:57:18.505Z,100781.28
2022-09-12T16:59:44.042Z,100782.97
2022-09-12T17:02:11.466Z,100779.31
2022-09-12T17:04:37.047Z,100775.72
2022-09-12T17:07:02.596Z,100778.50
2022-09-12T17:09:28.546Z,100769.38
2022-09-12T17:11:54.535Z,100776.88
2022-09-12T17:14:20.165Z,100765.75
2022-09-12T17:16:50.819Z,100773.28
2022-09-12T17:19:18.486Z,100770.50
2022-09-12T17:21:46.246Z,100764.13
2022-09-12T17:24:11.817Z,100768.53
2022-09-12T17:26:37.386Z,100768.88
2022-09-12T17:29:03.099Z,100770.50
2022-09-12T17:31:28.693Z,100768.88
2022-09-12T17:33:56.114Z,100765.28
2022-09-12T17:36:22.105Z,100756.13
2022-09-12T17:38:47.642Z,100754.16
2022-09-12T17:41:15.202Z,100758.56
2022-09-12T17:43:40.950Z,100756.13
2022-09-12T17:46:07.025Z,100753.03
2022-09-12T17:48:32.972Z,100758.56
2022-09-12T17:50:58.574Z,100752.19
2022-09-12T17:53:24.599Z,100751.38
2022-09-12T17:55:54.165Z,100750.25
2022-09-12T17:58:19.935Z,100749.72
2022-09-12T18:01:05.382Z,100754.16
2022-09-12T18:03:30.932Z,100753.34
2022-09-12T18:05:56.471Z,100756.94
2022-09-12T18:08:22.350Z,100752.50
2022-09-12T18:10:48.060Z,100758.91
2022-09-12T18:13:13.690Z,100758.91
2022-09-12T18:15:39.284Z,100755.28
2022-09-12T18:18:04.862Z,100752.50
2022-09-12T18:20:30.647Z,100751.66
2022-09-12T18:22:56.198Z,100756.13
2022-09-12T18:25:21.739Z,100750.56
2022-09-12T18:27:47.291Z,100744.16
2022-09-12T18:30:21.973Z,100746.94
2022-09-12T18:32:47.808Z,100744.16
2022-09-12T18:35:13.422Z,100742.22
2022-09-12T18:37:40.242Z,100741.38
2022-09-12T18:40:05.864Z,100740.56
2022-09-12T18:42:31.819Z,100744.16
2022-09-12T18:44:57.395Z,100738.59
2022-09-12T18:47:22.941Z,100735.00
2022-09-12T18:49:48.579Z,100728.63
2022-09-12T18:52:14.475Z,100727.81
2022-09-12T18:54:40.020Z,100729.44
2022-09-12T18:57:05.591Z,100730.59
2022-09-12T18:59:31.130Z,100722.25
2022-09-12T19:01:57.226Z,100714.75
2022-09-12T19:04:22.933Z,100712.78
2022-09-12T19:06:48.495Z,100704.78
2022-09-12T19:09:15.441Z,100706.41
2022-09-12T19:11:47.779Z,100710.00
2022-09-12T19:14:13.717Z,100718.66
2022-09-12T19:16:39.265Z,100729.44
2022-09-12T19:19:05.322Z,100731.41
2022-09-12T19:21:31.021Z,100735.34
2022-09-12T19:23:57.344Z,100729.78
2022-09-12T19:26:22.883Z,100726.19
2022-09-12T19:28:48.639Z,100723.91
2022-09-12T19:31:15.132Z,100722.25
2022-09-12T19:33:41.462Z,100715.06
2022-09-12T19:36:17.566Z,100717.03
2022-09-12T19:38:53.053Z,100715.88
2022-09-12T19:41:19.483Z,100717.84
2022-09-12T19:43:45.089Z,100730.91
2022-09-12T19:46:15.011Z,100728.13
2022-09-12T19:48:40.577Z,100720.63
2022-09-12T19:51:06.118Z,100722.59
2022-09-12T19:53:31.830Z,100730.09
2022-09-12T19:55:57.849Z,100736.47
2022-09-12T19:58:23.387Z,100734.50
2022-09-12T20:00:48.931Z,100733.38
2022-09-12T20:03:14.471Z,100731.72
2022-09-12T20:05:42.807Z,100730.09
2022-09-12T20:08:09.010Z,100737.28
2022-09-12T20:10:34.546Z,100737.28
2022-09-12T20:13:00.093Z,100739.25
2022-09-12T20:15:25.688Z,100732.88
2022-09-12T20:17:53.099Z,100725.38
2022-09-12T20:20:18.637Z,100719.81
2022-09-12T20:22:44.175Z,100720.63
2022-09-12T20:25:09.714Z,100719.00
2022-09-12T20:27:35.530Z,100715.38
2022-09-12T20:30:01.059Z,100716.22
2022-09-12T20:32:28.094Z,100713.44
2022-09-12T20:34:55.263Z,100722.59
2022-09-12T20:37:20.810Z,100718.13
2022-09-12T20:39:50.650Z,100714.53
2022-09-12T20:42:16.464Z,100716.22
2022-09-12T20:44:42.021Z,100713.72
2022-09-12T20:47:07.573Z,100704.25
2022-09-12T20:49:33.118Z,100707.03
2022-09-12T20:51:59.091Z,100694.28
2022-09-12T20:54:24.629Z,100699.56
2022-09-12T20:56:50.174Z,100699.56
2022-09-12T20:59:15.707Z,100694.00
2022-09-12T21:01:41.326Z,100695.94
2022-09-12T21:04:06.938Z,100694.28
2022-09-12T21:06:32.471Z,100694.28
2022-09-12T21:08:58.971Z,100682.88
2022-09-12T21:11:24.590Z,100673.72
2022-09-12T21:13:50.853Z,100673.72
2022-09-12T21:16:17.445Z,100670.13
2022-09-12T21:18:43.194Z,100665.69
2022-09-12T21:21:09.275Z,100666.53
2022-09-12T21:23:34.823Z,100678.75
2022-09-12T21:26:00.646Z,100675.66
2022-09-12T21:28:26.211Z,100681.22
2022-09-12T21:30:51.847Z,100685.13
2022-09-12T21:33:17.964Z,100683.19
2022-09-12T21:35:43.621Z,100687.91
2022-09-12T21:38:09.332Z,100683.50
2022-09-12T21:40:34.891Z,100683.19
2022-09-12T21:43:00.434Z,100673.72
2022-09-12T21:45:26.025Z,100664.88
2022-09-12T21:47:51.572Z,100669.28
2022-09-12T21:50:18.022Z,100664.06
2022-09-12T21:52:43.569Z,100672.41
2022-09-12T21:55:09.226Z,100676.00
2022-09-12T21:57:34.766Z,100683.19
2022-09-12T22:00:00.342Z,100687.09
2022-09-12T22:02:27.518Z,100698.22
2022-09-12T22:04:53.395Z,100698.22
2022-09-12T22:07:18.939Z,100716.81
2022-09-12T22:09:44.551Z,100704.56
2022-09-12T22:12:10.093Z,100698.22
2022-09-12T22:14:35.831Z,100699.03
2022-09-12T22:17:01.419Z,100694.59
2022-09-12T22:19:26.954Z,100700.97
2022-09-12T22:22:12.399Z,100704.56
2022-09-12T22:24:38.002Z,100706.53
2022-09-12T22:27:04.300Z,100700.97
2022-09-12T22:29:29.854Z,100704.91
2022-09-12T22:31:55.391Z,100716.81
2022-09-12T22:34:20.943Z,100725.16
2022-09-12T22:36:46.918Z,100727.13
2022-09-12T22:39:12.496Z,100721.56
2022-09-12T22:41:38.032Z,100725.16
2022-09-12T22:44:03.570Z,100719.59
2022-09-12T22:46:29.714Z,100716.81
2022-09-12T22:48:55.279Z,100716.00
2022-09-12T22:51:20.823Z,100713.22
2022-09-12T22:53:46.360Z,100706.88
2022-09-12T22:56:12.011Z,100706.88
2022-09-12T22:58:37.553Z,100699.34
2022-09-12T23:01:05.333Z,100691.03
2022-09-12T23:03:31.215Z,100697.72
2022-09-12T23:05:56.870Z,100706.88
2022-09-12T23:08:22.414Z,100700.16
2022-09-12T23:10:47.957Z,100704.09
2022-09-12T23:13:13.506Z,100696.56
2022-09-12T23:15:39.088Z,100691.31
2022-09-12T23:18:05.248Z,100694.09
2022-09-12T23:20:30.879Z,100678.28
2022-09-12T23:22:56.422Z,100681.06
2022-09-12T23:25:22.788Z,100687.41
2022-09-12T23:27:48.704Z,100684.66
2022-09-12T23:30:16.970Z,100683.81
2022-09-12T23:32:42.524Z,100683.81
2022-09-12T23:35:08.098Z,100671.88
2022-09-12T23:37:33.647Z,100671.88
2022-09-12T23:39:59.225Z,100669.94
2022-09-12T23:42:24.811Z,100670.22
2022-09-12T23:44:50.344Z,100679.38
2022-09-12T23:47:16.466Z,100673.00
2022-09-12T23:49:44.563Z,100681.34
2022-09-12T23:52:10.128Z,100687.72
2022-09-12T23:54:36.152Z,100675.78
2022-09-12T23:57:01.703Z,100682.97
2022-09-12T23:59:27.246Z,100677.41
